sensor_id;sensor_type;location;lat;lon;timestamp;temperature;humidity
80676;SHT30;70041;46.088;18.268;2024-03-02T00:02:07;10.22;80.20
80676;SHT30;70041;46.088;18.268;2024-03-02T00:04:33;10.24;80.08
80676;SHT30;70041;46.088;18.268;2024-03-02T00:06:58;10.24;79.38
80676;SHT30;70041;46.088;18.268;2024-03-02T00:09:24;10.16;79.87
80676;SHT30;70041;46.088;18.268;2024-03-02T00:11:50;10.13;80.60
80676;SHT30;70041;46.088;18.268;2024-03-02T00:14:16;10.10;81.04
80676;SHT30;70041;46.088;18.268;2024-03-02T00:16:42;10.03;81.34
80676;SHT30;70041;46.088;18.268;2024-03-02T00:19:08;10.08;81.09
80676;SHT30;70041;46.088;18.268;2024-03-02T00:21:34;10.00;81.11
80676;SHT30;70041;46.088;18.268;2024-03-02T00:24:01;10.00;80.35
80676;SHT30;70041;46.088;18.268;2024-03-02T00:26:32;10.02;81.01
80676;SHT30;70041;46.088;18.268;2024-03-02T00:28:59;10.06;81.09
80676;SHT30;70041;46.088;18.268;2024-03-02T00:31:25;10.12;80.68
80676;SHT30;70041;46.088;18.268;2024-03-02T00:33:51;10.12;79.89
80676;SHT30;70041;46.088;18.268;2024-03-02T00:36:26;10.14;79.40
80676;SHT30;70041;46.088;18.268;2024-03-02T00:38:54;10.10;79.46
80676;SHT30;70041;46.088;18.268;2024-03-02T00:41:28;10.13;79.45
80676;SHT30;70041;46.088;18.268;2024-03-02T00:44:04;10.10;80.61
80676;SHT30;70041;46.088;18.268;2024-03-02T00:46:37;10.05;79.94
80676;SHT30;70041;46.088;18.268;2024-03-02T00:49:04;10.03;80.31
80676;SHT30;70041;46.088;18.268;2024-03-02T00:51:33;10.08;80.11
80676;SHT30;70041;46.088;18.268;2024-03-02T00:54:00;10.09;79.74
80676;SHT30;70041;46.088;18.268;2024-03-02T00:56:26;9.98;79.97
80676;SHT30;70041;46.088;18.268;2024-03-02T00:58:52;9.85;80.40
80676;SHT30;70041;46.088;18.268;2024-03-02T01:01:18;9.68;80.77
80676;SHT30;70041;46.088;18.268;2024-03-02T01:03:45;9.55;81.63
80676;SHT30;70041;46.088;18.268;2024-03-02T01:06:10;9.42;81.95
80676;SHT30;70041;46.088;18.268;2024-03-02T01:08:36;9.35;82.18
80676;SHT30;70041;46.088;18.268;2024-03-02T01:11:02;9.31;82.20
80676;SHT30;70041;46.088;18.268;2024-03-02T01:13:28;9.32;81.32
80676;SHT30;70041;46.088;18.268;2024-03-02T01:15:54;9.38;81.40
80676;SHT30;70041;46.088;18.268;2024-03-02T01:18:20;9.38;82.03
80676;SHT30;70041;46.088;18.268;2024-03-02T01:20:45;9.34;82.28
80676;SHT30;70041;46.088;18.268;2024-03-02T01:23:11;9.37;81.45
80676;SHT30;70041;46.088;18.268;2024-03-02T01:25:36;9.48;81.15
80676;SHT30;70041;46.088;18.268;2024-03-02T01:28:02;9.45;80.53
80676;SHT30;70041;46.088;18.268;2024-03-02T01:30:27;9.37;81.01
80676;SHT30;70041;46.088;18.268;2024-03-02T01:32:53;9.20;82.12
80676;SHT30;70041;46.088;18.268;2024-03-02T01:35:18;9.01;83.14
80676;SHT30;70041;46.088;18.268;2024-03-02T01:37:44;8.93;83.27
80676;SHT30;70041;46.088;18.268;2024-03-02T01:40:10;8.90;83.62
80676;SHT30;70041;46.088;18.268;2024-03-02T01:42:39;8.99;82.26
80676;SHT30;70041;46.088;18.268;2024-03-02T01:45:08;9.04;82.05
80676;SHT30;70041;46.088;18.268;2024-03-02T01:47:34;8.90;82.82
80676;SHT30;70041;46.088;18.268;2024-03-02T01:50:00;8.83;83.22
80676;SHT30;70041;46.088;18.268;2024-03-02T01:52:26;8.77;83.61
80676;SHT30;70041;46.088;18.268;2024-03-02T01:54:52;8.75;84.17
80676;SHT30;70041;46.088;18.268;2024-03-02T01:57:18;8.84;82.94
80676;SHT30;70041;46.088;18.268;2024-03-02T01:59:44;8.90;82.64
80676;SHT30;70041;46.088;18.268;2024-03-02T02:02:09;8.80;83.13
80676;SHT30;70041;46.088;18.268;2024-03-02T02:04:35;8.77;83.62
80676;SHT30;70041;46.088;18.268;2024-03-02T02:07:00;8.84;83.89
80676;SHT30;70041;46.088;18.268;2024-03-02T02:09:26;8.96;82.81
80676;SHT30;70041;46.088;18.268;2024-03-02T02:11:52;9.03;82.82
80676;SHT30;70041;46.088;18.268;2024-03-02T02:14:17;9.01;83.20
80676;SHT30;70041;46.088;18.268;2024-03-02T02:16:43;9.07;83.38
80676;SHT30;70041;46.088;18.268;2024-03-02T02:19:08;9.10;83.32
80676;SHT30;70041;46.088;18.268;2024-03-02T02:21:34;9.27;82.35
80676;SHT30;70041;46.088;18.268;2024-03-02T02:24:00;9.28;81.99
80676;SHT30;70041;46.088;18.268;2024-03-02T02:26:28;9.27;82.01
80676;SHT30;70041;46.088;18.268;2024-03-02T02:28:53;9.26;81.90
80676;SHT30;70041;46.088;18.268;2024-03-02T02:31:19;9.30;81.64
80676;SHT30;70041;46.088;18.268;2024-03-02T02:33:44;9.20;81.83
80676;SHT30;70041;46.088;18.268;2024-03-02T02:36:09;9.14;81.88
80676;SHT30;70041;46.088;18.268;2024-03-02T02:38:44;9.03;82.05
80676;SHT30;70041;46.088;18.268;2024-03-02T02:41:10;9.07;82.18
80676;SHT30;70041;46.088;18.268;2024-03-02T02:43:36;9.01;82.26
80676;SHT30;70041;46.088;18.268;2024-03-02T02:46:01;8.94;82.14
80676;SHT30;70041;46.088;18.268;2024-03-02T02:48:27;9.08;82.44
80676;SHT30;70041;46.088;18.268;2024-03-02T02:50:52;9.11;81.73
80676;SHT30;70041;46.088;18.268;2024-03-02T02:53:17;9.07;82.19
80676;SHT30;70041;46.088;18.268;2024-03-02T02:55:43;9.11;82.16
80676;SHT30;70041;46.088;18.268;2024-03-02T02:58:12;9.11;82.12
80676;SHT30;70041;46.088;18.268;2024-03-02T03:00:37;9.16;82.10
80676;SHT30;70041;46.088;18.268;2024-03-02T03:03:03;9.11;82.39
80676;SHT30;70041;46.088;18.268;2024-03-02T03:05:28;9.04;82.04
80676;SHT30;70041;46.088;18.268;2024-03-02T03:07:54;9.07;82.70
80676;SHT30;70041;46.088;18.268;2024-03-02T03:10:19;9.07;82.48
80676;SHT30;70041;46.088;18.268;2024-03-02T03:12:47;9.06;82.68
80676;SHT30;70041;46.088;18.268;2024-03-02T03:15:13;9.11;82.91
80676;SHT30;70041;46.088;18.268;2024-03-02T03:17:39;9.23;83.32
80676;SHT30;70041;46.088;18.268;2024-03-02T03:20:06;9.27;83.12
80676;SHT30;70041;46.088;18.268;2024-03-02T03:22:38;9.32;83.19
80676;SHT30;70041;46.088;18.268;2024-03-02T03:25:03;9.42;82.79
80676;SHT30;70041;46.088;18.268;2024-03-02T03:27:29;9.42;82.46
80676;SHT30;70041;46.088;18.268;2024-03-02T03:29:54;9.38;82.15
80676;SHT30;70041;46.088;18.268;2024-03-02T03:32:20;9.32;82.51
80676;SHT30;70041;46.088;18.268;2024-03-02T03:34:45;9.23;82.07
80676;SHT30;70041;46.088;18.268;2024-03-02T03:37:11;9.18;82.72
80676;SHT30;70041;46.088;18.268;2024-03-02T03:39:36;9.17;82.85
80676;SHT30;70041;46.088;18.268;2024-03-02T03:42:03;9.16;82.58
80676;SHT30;70041;46.088;18.268;2024-03-02T03:44:28;9.07;82.12
80676;SHT30;70041;46.088;18.268;2024-03-02T03:46:54;9.18;82.66
80676;SHT30;70041;46.088;18.268;2024-03-02T03:49:20;9.28;82.06
80676;SHT30;70041;46.088;18.268;2024-03-02T03:51:45;9.17;81.75
80676;SHT30;70041;46.088;18.268;2024-03-02T03:54:11;9.24;82.32
80676;SHT30;70041;46.088;18.268;2024-03-02T03:56:37;9.30;82.22
80676;SHT30;70041;46.088;18.268;2024-03-02T03:59:02;9.32;81.75
80676;SHT30;70041;46.088;18.268;2024-03-02T04:01:27;9.27;82.15
80676;SHT30;70041;46.088;18.268;2024-03-02T04:03:53;9.34;81.88
80676;SHT30;70041;46.088;18.268;2024-03-02T04:06:18;9.26;81.90
80676;SHT30;70041;46.088;18.268;2024-03-02T04:08:44;9.27;81.89
80676;SHT30;70041;46.088;18.268;2024-03-02T04:11:09;9.14;82.67
80676;SHT30;70041;46.088;18.268;2024-03-02T04:13:34;9.17;81.86
80676;SHT30;70041;46.088;18.268;2024-03-02T04:16:00;9.26;81.55
80676;SHT30;70041;46.088;18.268;2024-03-02T04:18:25;9.31;81.16
80676;SHT30;70041;46.088;18.268;2024-03-02T04:20:51;9.37;81.00
80676;SHT30;70041;46.088;18.268;2024-03-02T04:23:16;9.30;81.33
80676;SHT30;70041;46.088;18.268;2024-03-02T04:25:41;9.37;81.09
80676;SHT30;70041;46.088;18.268;2024-03-02T04:28:07;9.34;81.25
80676;SHT30;70041;46.088;18.268;2024-03-02T04:30:32;9.17;81.89
80676;SHT30;70041;46.088;18.268;2024-03-02T04:32:58;9.23;82.13
80676;SHT30;70041;46.088;18.268;2024-03-02T04:35:23;9.23;82.51
80676;SHT30;70041;46.088;18.268;2024-03-02T04:37:50;9.13;82.68
80676;SHT30;70041;46.088;18.268;2024-03-02T04:40:15;9.14;82.64
80676;SHT30;70041;46.088;18.268;2024-03-02T04:42:41;9.13;82.65
80676;SHT30;70041;46.088;18.268;2024-03-02T04:45:06;9.20;82.71
80676;SHT30;70041;46.088;18.268;2024-03-02T04:47:32;9.08;82.29
80676;SHT30;70041;46.088;18.268;2024-03-02T04:49:58;8.91;83.54
80676;SHT30;70041;46.088;18.268;2024-03-02T04:52:23;8.91;83.53
80676;SHT30;70041;46.088;18.268;2024-03-02T04:54:48;8.93;83.96
80676;SHT30;70041;46.088;18.268;2024-03-02T04:57:32;8.94;83.78
80676;SHT30;70041;46.088;18.268;2024-03-02T04:59:58;8.88;83.97
80676;SHT30;70041;46.088;18.268;2024-03-02T05:02:23;9.07;83.67
80676;SHT30;70041;46.088;18.268;2024-03-02T05:04:49;9.10;83.33
80676;SHT30;70041;46.088;18.268;2024-03-02T05:07:14;9.17;83.11
80676;SHT30;70041;46.088;18.268;2024-03-02T05:09:40;9.13;83.03
80676;SHT30;70041;46.088;18.268;2024-03-02T05:12:05;9.14;82.88
80676;SHT30;70041;46.088;18.268;2024-03-02T05:14:49;9.30;82.37
80676;SHT30;70041;46.088;18.268;2024-03-02T05:17:14;9.28;82.47
80676;SHT30;70041;46.088;18.268;2024-03-02T05:19:40;9.20;82.51
80676;SHT30;70041;46.088;18.268;2024-03-02T05:22:05;9.20;82.47
80676;SHT30;70041;46.088;18.268;2024-03-02T05:24:31;9.07;82.96
80676;SHT30;70041;46.088;18.268;2024-03-02T05:26:56;9.08;82.95
80676;SHT30;70041;46.088;18.268;2024-03-02T05:29:22;9.01;83.24
80676;SHT30;70041;46.088;18.268;2024-03-02T05:31:48;9.01;83.01
80676;SHT30;70041;46.088;18.268;2024-03-02T05:34:13;8.97;82.77
80676;SHT30;70041;46.088;18.268;2024-03-02T05:36:39;9.01;82.84
80676;SHT30;70041;46.088;18.268;2024-03-02T05:39:05;9.04;82.57
80676;SHT30;70041;46.088;18.268;2024-03-02T05:41:34;8.93;82.89
80676;SHT30;70041;46.088;18.268;2024-03-02T05:44:00;9.01;82.70
80676;SHT30;70041;46.088;18.268;2024-03-02T05:46:25;9.17;82.55
80676;SHT30;70041;46.088;18.268;2024-03-02T05:48:51;9.21;82.33
80676;SHT30;70041;46.088;18.268;2024-03-02T05:51:17;9.30;81.70
80676;SHT30;70041;46.088;18.268;2024-03-02T05:53:42;9.38;81.70
80676;SHT30;70041;46.088;18.268;2024-03-02T05:56:08;9.41;81.95
80676;SHT30;70041;46.088;18.268;2024-03-02T05:58:33;9.47;81.80
80676;SHT30;70041;46.088;18.268;2024-03-02T06:01:17;9.61;80.85
80676;SHT30;70041;46.088;18.268;2024-03-02T06:03:43;9.59;80.90
80676;SHT30;70041;46.088;18.268;2024-03-02T06:06:08;9.62;80.87
80676;SHT30;70041;46.088;18.268;2024-03-02T06:08:34;9.52;82.21
80676;SHT30;70041;46.088;18.268;2024-03-02T06:11:00;9.49;82.49
80676;SHT30;70041;46.088;18.268;2024-03-02T06:13:25;9.51;82.31
80676;SHT30;70041;46.088;18.268;2024-03-02T06:15:52;9.48;82.03
80676;SHT30;70041;46.088;18.268;2024-03-02T06:18:17;9.55;81.20
80676;SHT30;70041;46.088;18.268;2024-03-02T06:20:43;9.55;81.52
80676;SHT30;70041;46.088;18.268;2024-03-02T06:23:08;9.42;82.99
80676;SHT30;70041;46.088;18.268;2024-03-02T06:25:33;9.55;83.40
80676;SHT30;70041;46.088;18.268;2024-03-02T06:27:59;9.59;83.86
80676;SHT30;70041;46.088;18.268;2024-03-02T06:30:24;9.61;84.65
80676;SHT30;70041;46.088;18.268;2024-03-02T06:32:50;9.55;84.43
80676;SHT30;70041;46.088;18.268;2024-03-02T06:35:15;9.52;83.46
80676;SHT30;70041;46.088;18.268;2024-03-02T06:37:40;9.31;84.38
80676;SHT30;70041;46.088;18.268;2024-03-02T06:40:07;9.13;86.23
80676;SHT30;70041;46.088;18.268;2024-03-02T06:42:33;9.20;86.24
80676;SHT30;70041;46.088;18.268;2024-03-02T06:44:59;9.20;86.46
80676;SHT30;70041;46.088;18.268;2024-03-02T06:47:24;8.97;87.71
80676;SHT30;70041;46.088;18.268;2024-03-02T06:49:50;9.01;87.42
80676;SHT30;70041;46.088;18.268;2024-03-02T06:52:16;8.94;87.90
80676;SHT30;70041;46.088;18.268;2024-03-02T06:54:41;8.88;87.89
80676;SHT30;70041;46.088;18.268;2024-03-02T06:57:06;8.91;87.78
80676;SHT30;70041;46.088;18.268;2024-03-02T06:59:32;8.91;87.91
80676;SHT30;70041;46.088;18.268;2024-03-02T07:01:58;8.91;88.27
80676;SHT30;70041;46.088;18.268;2024-03-02T07:04:24;8.86;88.85
80676;SHT30;70041;46.088;18.268;2024-03-02T07:06:49;8.81;88.71
80676;SHT30;70041;46.088;18.268;2024-03-02T07:09:16;8.86;89.04
80676;SHT30;70041;46.088;18.268;2024-03-02T07:11:41;8.87;89.28
80676;SHT30;70041;46.088;18.268;2024-03-02T07:14:07;8.88;89.68
80676;SHT30;70041;46.088;18.268;2024-03-02T07:16:32;8.91;89.46
80676;SHT30;70041;46.088;18.268;2024-03-02T07:18:59;9.00;89.44
80676;SHT30;70041;46.088;18.268;2024-03-02T07:21:27;9.03;89.47
80676;SHT30;70041;46.088;18.268;2024-03-02T07:23:52;9.11;89.23
80676;SHT30;70041;46.088;18.268;2024-03-02T07:26:18;9.13;89.58
80676;SHT30;70041;46.088;18.268;2024-03-02T07:28:47;9.16;89.92
80676;SHT30;70041;46.088;18.268;2024-03-02T07:31:13;9.26;89.27
80676;SHT30;70041;46.088;18.268;2024-03-02T07:33:39;9.21;88.90
80676;SHT30;70041;46.088;18.268;2024-03-02T07:36:04;9.11;89.43
80676;SHT30;70041;46.088;18.268;2024-03-02T07:38:30;9.30;89.04
80676;SHT30;70041;46.088;18.268;2024-03-02T07:40:56;9.35;89.18
80676;SHT30;70041;46.088;18.268;2024-03-02T07:43:22;9.42;88.69
80676;SHT30;70041;46.088;18.268;2024-03-02T07:45:48;9.48;88.63
80676;SHT30;70041;46.088;18.268;2024-03-02T07:48:14;9.61;87.97
80676;SHT30;70041;46.088;18.268;2024-03-02T07:50:39;9.77;88.52
80676;SHT30;70041;46.088;18.268;2024-03-02T07:53:05;9.75;86.87
80676;SHT30;70041;46.088;18.268;2024-03-02T07:55:31;9.78;86.91
80676;SHT30;70041;46.088;18.268;2024-03-02T07:57:57;9.71;85.69
80676;SHT30;70041;46.088;18.268;2024-03-02T08:00:23;9.79;86.14
80676;SHT30;70041;46.088;18.268;2024-03-02T08:02:49;9.99;86.10
80676;SHT30;70041;46.088;18.268;2024-03-02T08:05:16;10.19;85.41
80676;SHT30;70041;46.088;18.268;2024-03-02T08:07:43;10.29;84.91
80676;SHT30;70041;46.088;18.268;2024-03-02T08:10:11;10.22;84.19
80676;SHT30;70041;46.088;18.268;2024-03-02T08:12:37;10.36;84.54
80676;SHT30;70041;46.088;18.268;2024-03-02T08:15:02;10.39;84.81
80676;SHT30;70041;46.088;18.268;2024-03-02T08:17:28;10.30;84.67
80676;SHT30;70041;46.088;18.268;2024-03-02T08:19:53;10.39;85.56
80676;SHT30;70041;46.088;18.268;2024-03-02T08:22:19;10.46;86.24
80676;SHT30;70041;46.088;18.268;2024-03-02T08:24:44;10.32;85.97
80676;SHT30;70041;46.088;18.268;2024-03-02T08:27:10;10.36;86.71
80676;SHT30;70041;46.088;18.268;2024-03-02T08:29:36;10.53;86.26
80676;SHT30;70041;46.088;18.268;2024-03-02T08:32:01;10.64;84.95
80676;SHT30;70041;46.088;18.268;2024-03-02T08:34:27;10.67;84.96
80676;SHT30;70041;46.088;18.268;2024-03-02T08:36:53;10.60;83.60
80676;SHT30;70041;46.088;18.268;2024-03-02T08:39:18;10.61;84.52
80676;SHT30;70041;46.088;18.268;2024-03-02T08:41:45;10.63;83.65
80676;SHT30;70041;46.088;18.268;2024-03-02T08:44:11;10.34;85.83
80676;SHT30;70041;46.088;18.268;2024-03-02T08:46:36;10.61;84.59
80676;SHT30;70041;46.088;18.268;2024-03-02T08:49:02;10.68;85.12
80676;SHT30;70041;46.088;18.268;2024-03-02T08:51:28;10.81;84.73
80676;SHT30;70041;46.088;18.268;2024-03-02T08:53:54;11.02;85.10
80676;SHT30;70041;46.088;18.268;2024-03-02T08:56:19;11.08;83.80
80676;SHT30;70041;46.088;18.268;2024-03-02T08:58:46;10.91;83.42
80676;SHT30;70041;46.088;18.268;2024-03-02T09:01:12;11.12;83.59
80676;SHT30;70041;46.088;18.268;2024-03-02T09:03:37;11.31;83.29
80676;SHT30;70041;46.088;18.268;2024-03-02T09:06:03;11.53;82.80
80676;SHT30;70041;46.088;18.268;2024-03-02T09:08:29;11.61;80.91
80676;SHT30;70041;46.088;18.268;2024-03-02T09:10:55;11.75;80.93
80676;SHT30;70041;46.088;18.268;2024-03-02T09:13:21;11.75;81.84
80676;SHT30;70041;46.088;18.268;2024-03-02T09:15:47;11.87;81.08
80676;SHT30;70041;46.088;18.268;2024-03-02T09:18:12;11.79;80.48
80676;SHT30;70041;46.088;18.268;2024-03-02T09:20:40;11.96;81.08
80676;SHT30;70041;46.088;18.268;2024-03-02T09:23:05;12.01;82.12
80676;SHT30;70041;46.088;18.268;2024-03-02T09:25:31;11.98;81.49
80676;SHT30;70041;46.088;18.268;2024-03-02T09:27:57;12.17;79.90
80676;SHT30;70041;46.088;18.268;2024-03-02T09:30:22;12.23;79.82
80676;SHT30;70041;46.088;18.268;2024-03-02T09:32:47;12.12;81.16
80676;SHT30;70041;46.088;18.268;2024-03-02T09:35:13;12.13;79.94
80676;SHT30;70041;46.088;18.268;2024-03-02T09:37:38;11.98;80.48
80676;SHT30;70041;46.088;18.268;2024-03-02T09:40:04;12.20;80.82
80676;SHT30;70041;46.088;18.268;2024-03-02T09:42:31;12.13;80.58
80676;SHT30;70041;46.088;18.268;2024-03-02T09:44:57;12.30;80.11
80676;SHT30;70041;46.088;18.268;2024-03-02T09:47:23;12.18;80.67
80676;SHT30;70041;46.088;18.268;2024-03-02T09:49:48;12.41;79.07
80676;SHT30;70041;46.088;18.268;2024-03-02T09:52:14;12.45;79.23
80676;SHT30;70041;46.088;18.268;2024-03-02T09:54:40;12.47;78.52
80676;SHT30;70041;46.088;18.268;2024-03-02T09:57:05;12.51;79.02
80676;SHT30;70041;46.088;18.268;2024-03-02T09:59:31;12.58;79.11
80676;SHT30;70041;46.088;18.268;2024-03-02T10:01:58;12.55;78.76
80676;SHT30;70041;46.088;18.268;2024-03-02T10:04:26;12.54;79.59
80676;SHT30;70041;46.088;18.268;2024-03-02T10:06:51;12.69;79.04
80676;SHT30;70041;46.088;18.268;2024-03-02T10:09:27;12.84;79.16
80676;SHT30;70041;46.088;18.268;2024-03-02T10:12:03;12.96;78.42
80676;SHT30;70041;46.088;18.268;2024-03-02T10:14:29;13.12;77.53
80676;SHT30;70041;46.088;18.268;2024-03-02T10:17:02;13.24;77.53
80676;SHT30;70041;46.088;18.268;2024-03-02T10:19:28;13.42;76.53
80676;SHT30;70041;46.088;18.268;2024-03-02T10:21:58;13.43;77.18
80676;SHT30;70041;46.088;18.268;2024-03-02T10:24:24;13.47;76.70
80676;SHT30;70041;46.088;18.268;2024-03-02T10:26:52;13.42;78.04
80676;SHT30;70041;46.088;18.268;2024-03-02T10:29:17;13.64;75.86
80676;SHT30;70041;46.088;18.268;2024-03-02T10:31:44;13.80;75.93
80676;SHT30;70041;46.088;18.268;2024-03-02T10:34:11;14.17;74.16
80676;SHT30;70041;46.088;18.268;2024-03-02T10:36:40;14.43;73.26
80676;SHT30;70041;46.088;18.268;2024-03-02T10:39:07;14.42;73.23
80676;SHT30;70041;46.088;18.268;2024-03-02T10:41:37;14.61;72.36
80676;SHT30;70041;46.088;18.268;2024-03-02T10:44:04;14.69;72.90
80676;SHT30;70041;46.088;18.268;2024-03-02T10:46:31;14.83;71.17
80676;SHT30;70041;46.088;18.268;2024-03-02T10:48:57;14.71;71.99
80676;SHT30;70041;46.088;18.268;2024-03-02T10:51:30;14.36;73.26
80676;SHT30;70041;46.088;18.268;2024-03-02T10:53:57;14.26;72.03
80676;SHT30;70041;46.088;18.268;2024-03-02T10:56:40;14.39;74.15
80676;SHT30;70041;46.088;18.268;2024-03-02T10:59:26;14.69;72.10
80676;SHT30;70041;46.088;18.268;2024-03-02T11:01:56;14.71;70.66
80676;SHT30;70041;46.088;18.268;2024-03-02T11:04:25;14.41;71.26
80676;SHT30;70041;46.088;18.268;2024-03-02T11:06:51;14.08;73.13
80676;SHT30;70041;46.088;18.268;2024-03-02T11:09:22;13.95;73.21
80676;SHT30;70041;46.088;18.268;2024-03-02T11:12:00;14.51;74.18
80676;SHT30;70041;46.088;18.268;2024-03-02T11:14:30;14.68;71.60
80676;SHT30;70041;46.088;18.268;2024-03-02T11:16:57;14.20;72.90
80676;SHT30;70041;46.088;18.268;2024-03-02T11:19:24;14.41;70.62
80676;SHT30;70041;46.088;18.268;2024-03-02T11:21:50;14.45;71.00
80676;SHT30;70041;46.088;18.268;2024-03-02T11:26:47;14.52;70.80
80676;SHT30;70041;46.088;18.268;2024-03-02T11:34:41;13.97;73.37
80676;SHT30;70041;46.088;18.268;2024-03-02T11:37:10;14.08;73.76
80676;SHT30;70041;46.088;18.268;2024-03-02T11:39:36;13.84;72.92
80676;SHT30;70041;46.088;18.268;2024-03-02T11:42:01;13.69;73.35
80676;SHT30;70041;46.088;18.268;2024-03-02T11:44:28;13.85;73.19
80676;SHT30;70041;46.088;18.268;2024-03-02T11:47:00;13.95;71.82
80676;SHT30;70041;46.088;18.268;2024-03-02T11:49:49;13.88;72.38
80676;SHT30;70041;46.088;18.268;2024-03-02T11:52:15;14.25;71.44
80676;SHT30;70041;46.088;18.268;2024-03-02T11:54:44;14.72;69.59
80676;SHT30;70041;46.088;18.268;2024-03-02T11:57:14;15.28;67.64
80676;SHT30;70041;46.088;18.268;2024-03-02T11:59:41;15.91;67.81
80676;SHT30;70041;46.088;18.268;2024-03-02T12:02:06;16.25;64.32
80676;SHT30;70041;46.088;18.268;2024-03-02T12:04:32;16.98;63.04
80676;SHT30;70041;46.088;18.268;2024-03-02T12:07:01;17.31;60.56
80676;SHT30;70041;46.088;18.268;2024-03-02T12:09:29;17.06;61.37
80676;SHT30;70041;46.088;18.268;2024-03-02T12:12:21;16.67;62.15
80676;SHT30;70041;46.088;18.268;2024-03-02T12:14:51;16.43;63.50
80676;SHT30;70041;46.088;18.268;2024-03-02T12:17:18;16.36;64.88
80676;SHT30;70041;46.088;18.268;2024-03-02T12:19:44;15.92;64.87
80676;SHT30;70041;46.088;18.268;2024-03-02T12:22:11;15.71;66.11
80676;SHT30;70041;46.088;18.268;2024-03-02T12:24:37;15.55;67.25
80676;SHT30;70041;46.088;18.268;2024-03-02T12:27:03;15.66;66.71
80676;SHT30;70041;46.088;18.268;2024-03-02T12:29:29;15.85;66.58
80676;SHT30;70041;46.088;18.268;2024-03-02T12:31:55;15.72;65.75
80676;SHT30;70041;46.088;18.268;2024-03-02T12:34:21;15.40;65.89
80676;SHT30;70041;46.088;18.268;2024-03-02T12:36:48;15.51;66.60
80676;SHT30;70041;46.088;18.268;2024-03-02T12:39:21;15.38;65.50
80676;SHT30;70041;46.088;18.268;2024-03-02T12:41:50;15.38;66.62
80676;SHT30;70041;46.088;18.268;2024-03-02T12:44:17;15.53;65.30
80676;SHT30;70041;46.088;18.268;2024-03-02T12:46:43;15.74;64.58
80676;SHT30;70041;46.088;18.268;2024-03-02T12:49:10;15.84;63.69
80676;SHT30;70041;46.088;18.268;2024-03-02T12:51:40;15.84;64.61
80676;SHT30;70041;46.088;18.268;2024-03-02T12:54:07;15.98;63.39
80676;SHT30;70041;46.088;18.268;2024-03-02T12:56:33;16.08;63.60
80676;SHT30;70041;46.088;18.268;2024-03-02T12:58:59;16.02;64.17
80676;SHT30;70041;46.088;18.268;2024-03-02T13:01:25;15.86;63.58
80676;SHT30;70041;46.088;18.268;2024-03-02T13:03:51;15.88;63.23
80676;SHT30;70041;46.088;18.268;2024-03-02T13:06:17;16.05;63.82
80676;SHT30;70041;46.088;18.268;2024-03-02T13:08:45;16.29;63.31
80676;SHT30;70041;46.088;18.268;2024-03-02T13:11:11;16.16;63.05
80676;SHT30;70041;46.088;18.268;2024-03-02T13:13:38;16.33;63.13
80676;SHT30;70041;46.088;18.268;2024-03-02T13:16:08;16.47;62.51
80676;SHT30;70041;46.088;18.268;2024-03-02T13:18:34;16.61;62.89
80676;SHT30;70041;46.088;18.268;2024-03-02T13:20:59;16.57;62.68
80676;SHT30;70041;46.088;18.268;2024-03-02T13:23:24;16.66;61.75
80676;SHT30;70041;46.088;18.268;2024-03-02T13:25:50;16.53;61.27
80676;SHT30;70041;46.088;18.268;2024-03-02T13:28:15;16.53;61.38
80676;SHT30;70041;46.088;18.268;2024-03-02T13:30:41;16.49;60.10
80676;SHT30;70041;46.088;18.268;2024-03-02T13:33:06;16.57;59.96
80676;SHT30;70041;46.088;18.268;2024-03-02T13:35:32;16.71;60.88
80676;SHT30;70041;46.088;18.268;2024-03-02T13:37:57;17.00;60.17
80676;SHT30;70041;46.088;18.268;2024-03-02T13:40:23;17.11;61.04
80676;SHT30;70041;46.088;18.268;2024-03-02T13:42:49;17.19;60.45
80676;SHT30;70041;46.088;18.268;2024-03-02T13:45:16;17.53;58.04
80676;SHT30;70041;46.088;18.268;2024-03-02T13:47:42;17.62;58.20
80676;SHT30;70041;46.088;18.268;2024-03-02T13:50:08;17.72;57.00
80676;SHT30;70041;46.088;18.268;2024-03-02T13:52:33;17.76;56.43
80676;SHT30;70041;46.088;18.268;2024-03-02T13:54:59;17.79;56.31
80676;SHT30;70041;46.088;18.268;2024-03-02T13:57:24;17.82;56.49
80676;SHT30;70041;46.088;18.268;2024-03-02T13:59:50;17.73;56.73
80676;SHT30;70041;46.088;18.268;2024-03-02T14:02:17;17.69;56.61
80676;SHT30;70041;46.088;18.268;2024-03-02T14:04:42;17.87;55.59
80676;SHT30;70041;46.088;18.268;2024-03-02T14:07:08;17.82;56.44
80676;SHT30;70041;46.088;18.268;2024-03-02T14:09:34;18.00;55.97
80676;SHT30;70041;46.088;18.268;2024-03-02T14:12:00;17.97;55.13
80676;SHT30;70041;46.088;18.268;2024-03-02T14:14:26;17.79;55.02
80676;SHT30;70041;46.088;18.268;2024-03-02T14:16:52;17.68;56.23
80676;SHT30;70041;46.088;18.268;2024-03-02T14:19:18;17.75;54.83
80676;SHT30;70041;46.088;18.268;2024-03-02T14:21:43;17.70;54.76
80676;SHT30;70041;46.088;18.268;2024-03-02T14:24:09;17.68;55.84
80676;SHT30;70041;46.088;18.268;2024-03-02T14:26:35;17.63;55.45
80676;SHT30;70041;46.088;18.268;2024-03-02T14:29:04;17.62;54.30
80676;SHT30;70041;46.088;18.268;2024-03-02T14:31:30;17.66;54.73
80676;SHT30;70041;46.088;18.268;2024-03-02T14:34:00;17.58;53.72
80676;SHT30;70041;46.088;18.268;2024-03-02T14:36:26;17.65;53.71
80676;SHT30;70041;46.088;18.268;2024-03-02T14:38:53;17.45;54.25
80676;SHT30;70041;46.088;18.268;2024-03-02T14:41:18;17.39;55.09
80676;SHT30;70041;46.088;18.268;2024-03-02T14:43:44;17.21;56.44
80676;SHT30;70041;46.088;18.268;2024-03-02T14:46:09;17.29;55.40
80676;SHT30;70041;46.088;18.268;2024-03-02T14:48:38;17.08;56.30
80676;SHT30;70041;46.088;18.268;2024-03-02T14:51:04;17.27;54.93
80676;SHT30;70041;46.088;18.268;2024-03-02T14:53:29;17.36;54.45
80676;SHT30;70041;46.088;18.268;2024-03-02T14:55:55;17.58;55.87
80676;SHT30;70041;46.088;18.268;2024-03-02T14:58:20;17.65;55.99
80676;SHT30;70041;46.088;18.268;2024-03-02T15:00:46;17.56;54.72
80676;SHT30;70041;46.088;18.268;2024-03-02T15:03:11;17.75;55.05
80676;SHT30;70041;46.088;18.268;2024-03-02T15:05:37;17.70;54.55
80676;SHT30;70041;46.088;18.268;2024-03-02T15:08:04;17.45;55.59
80676;SHT30;70041;46.088;18.268;2024-03-02T15:10:31;17.68;55.17
80676;SHT30;70041;46.088;18.268;2024-03-02T15:12:57;17.89;55.36
80676;SHT30;70041;46.088;18.268;2024-03-02T15:15:23;17.78;54.78
80676;SHT30;70041;46.088;18.268;2024-03-02T15:17:48;17.58;54.58
80676;SHT30;70041;46.088;18.268;2024-03-02T15:20:14;17.41;55.44
80676;SHT30;70041;46.088;18.268;2024-03-02T15:22:40;17.63;54.77
80676;SHT30;70041;46.088;18.268;2024-03-02T15:25:06;17.63;54.33
80676;SHT30;70041;46.088;18.268;2024-03-02T15:27:32;18.02;54.06